Omaha, NE (68197)

2:13 PM CST on February 08, 2016 (GMT -0600)
Midtown Crossing area | | Change Station
CLOSE
Current Station
Personal Weather Station
Location: Omaha, NE
Elevation: 1161 ft
Nearby Weather Stations
Active Advisory: Wind Advisory

Elev 1161 ft 41.26 °N, 95.96 °W | Updated 6 seconds ago

Overcast
Overcast
28.2 °F
Feels Like 15 °F
N
20.1
Wind Variable Wind from NNE
Gusts 30.0 mph

Today
High -- | Low -- °F
--% Chance of Precip.
Yesterday
High -- | Low -- °F
Precip. -- in
Pressure 30.11 in
Visibility 10.0 miles
Clouds Mostly Cloudy 3200 ft
Overcast 4000 ft
Windchill 15 °F
Dew Point -3 °F
Humidity 25%
Rainfall 0.00 in
Snow Depth Not available.
7:27 AM 5:48 PM
New Moon, 0% visible
METAR KOMA 081952Z 33024G31KT 10SM BKN032 OVC040 M02/M07 A3008 RMK AO2 PK WND 32035/1938 SNB13E29 SLP196 P0000 T10221072
Pressure 30.11 in
Visibility 10.0 miles
Clouds Mostly Cloudy 3200 ft
Overcast 4000 ft
Windchill 15 °F
Dew Point -3 °F
Humidity 25%
Rainfall 0.00 in
Snow Depth Not available.
7:27 AM 5:48 PM
New Moon, 0% visible
METAR KOMA 081952Z 33024G31KT 10SM BKN032 OVC040 M02/M07 A3008 RMK AO2 PK WND 32035/1938 SNB13E29 SLP196 P0000 T10221072

10-Day Weather Forecast

Almanac

Astronomy

Feb. 08, 2016 Rise Set
Actual Time
Civil Twilight
Nautical Twilight
Astronomical Twilight
Moon
Length of Visible Light
Length of Day
Tomorrow will be .
, % of the Moon is Illuminated

Today's Extremes

State Highs State Lows

Community

WunderPhotos

Upload Photos

1,891,503 photos uploaded!

WunderBlog® & News

Nearby

Air Quality

  Air Quality AQ Index Pollutant
Not available.

Snow Depth

Station Depth Elevation

Earthquake Activity

City Distance Mag. Time & Date
Minimum magnitude displayed is 2.5.

Coastal Water Temperatures

Place Temperature

Stations

Nearby Weather Stations

Station Location Temp. Windchill Dew Point Humidity Wind Precip. Elev Updated Type
                   

Watches & Warnings

Wind Advisory
Issued: 11:43 AM CST Feb. 8, 2016 – National Weather Service

... Wind Advisory remains in effect until 6 PM CST this evening...

* timing... strong northwest winds will continue through this
afternoon before diminishing by early evening.

* Winds... northwest winds of 25 to 35 mph with gusts to around
or over 45 mph.

* Impacts... winds of this magnitude will be hazardous to
motorists... especially those with high profile vehicles. In
addition... areas of blowing snow will create hazardous travel
conditions in parts of the area.

Precautionary/preparedness actions...

A Wind Advisory means that sustained wind speeds between 30 to
39 mph or gusts between 45 to 57 mph are expected. Winds this
strong can make driving difficult... especially for high profile
vehicles. Use extra caution.